Center Cambridge, New York
Current Conditions -  °F | °C
As of 4:25 PM on Friday 24 Oct 2014 (Local Time) from KDDH Reporting Station
Overcast Overcast  
Wind Chill: 45°   Ceiling: 1400
Heat Index: 45°   Visibility: 10mi
Dew Point: 42°   Wind: 3mph
Humidity: 90%   Direction: NA
Pressure: 29.8"   Gusts: NA
Location:  43.0594°N, 73.3734°W
Report Text: KDDH 242025Z AUTO VRB03KT 10SM OVC014 07/06 A2980 RMK AO2 T00720056
Loading
Personal Weather Stations






























Interactive Weather Map
Tropical Storm Tracking
New forecast layout! Learn more

10-Day Weather Forecast

Advertisements
Track Severe Weather on mobile